createdAt,value
2023-04-27T00:00:29.084Z,494.6667
2023-04-27T00:01:32.961Z,494.8333
2023-04-27T00:02:36.943Z,495.6667
2023-04-27T00:03:41.336Z,498.3333
2023-04-27T00:04:45.464Z,498.1667
2023-04-27T00:05:49.538Z,492.3333
2023-04-27T00:06:53.455Z,490.3333
2023-04-27T00:07:57.365Z,505.7500
2023-04-27T00:09:01.292Z,504.2500
2023-04-27T00:10:05.162Z,503.5000
2023-04-27T00:11:09.071Z,491.7500
2023-04-27T00:12:12.953Z,497.3333
2023-04-27T00:13:17.135Z,498.5833
2023-04-27T00:14:21.031Z,490.7500
2023-04-27T00:15:25.265Z,497.1667
2023-04-27T00:16:29.180Z,504.7500
2023-04-27T00:17:33.093Z,495.0833
2023-04-27T00:18:36.950Z,503.9167
2023-04-27T00:19:40.927Z,495.2500
2023-04-27T00:20:44.794Z,507.5833
2023-04-27T00:21:48.662Z,500.1667
2023-04-27T00:22:52.574Z,498.0000
2023-04-27T00:23:56.455Z,497.5000
2023-04-27T00:25:00.352Z,492.9167
2023-04-27T00:26:04.291Z,494.8333
2023-04-27T00:27:08.155Z,501.9167
2023-04-27T00:28:12.254Z,500.7500
2023-04-27T00:29:16.159Z,501.4167
2023-04-27T00:30:20.282Z,499.9167
2023-04-27T00:31:24.226Z,496.3333
2023-04-27T00:32:28.183Z,500.2500
2023-04-27T00:33:32.070Z,502.1667
2023-04-27T00:34:35.955Z,501.9167
2023-04-27T00:35:39.869Z,498.2500
2023-04-27T00:36:43.766Z,495.5000
2023-04-27T00:37:47.666Z,496.9167
2023-04-27T00:38:51.582Z,498.0000
2023-04-27T00:39:55.694Z,505.9167
2023-04-27T00:40:59.608Z,498.5833
2023-04-27T00:42:03.499Z,496.2500
2023-04-27T00:43:07.404Z,498.5833
2023-04-27T00:44:11.287Z,489.3333
2023-04-27T00:45:15.232Z,488.5000
2023-04-27T00:46:19.313Z,491.6667
2023-04-27T00:47:23.215Z,495.4167
2023-04-27T00:48:27.078Z,500.3333
2023-04-27T00:49:30.983Z,490.9167
2023-04-27T00:50:34.871Z,489.4167
2023-04-27T00:51:38.799Z,498.5000
2023-04-27T00:52:42.679Z,490.0000
2023-04-27T00:53:46.581Z,498.1667
2023-04-27T00:54:50.702Z,499.3333
2023-04-27T00:55:54.593Z,496.5833
2023-04-27T00:56:58.487Z,497.2500
2023-04-27T00:58:02.423Z,485.0000
2023-04-27T00:59:06.303Z,499.0000
2023-04-27T01:00:10.204Z,505.2500
2023-04-27T01:01:14.093Z,506.7500
2023-04-27T01:02:18.036Z,505.3333
2023-04-27T01:03:22.054Z,507.9167
2023-04-27T01:04:26.120Z,505.3333
2023-04-27T01:05:31.995Z,493.4167
2023-04-27T01:06:31.150Z,496.7273
2023-04-27T01:07:35.068Z,498.9167
2023-04-27T01:08:38.947Z,506.1667
2023-04-27T01:09:42.954Z,502.2500
2023-04-27T01:10:46.847Z,500.4167
2023-04-27T01:11:50.845Z,495.5000
2023-04-27T01:12:54.745Z,497.0833
2023-04-27T01:13:58.632Z,496.1667
2023-04-27T01:15:02.547Z,496.0833
2023-04-27T01:16:06.432Z,495.5833
2023-04-27T01:17:10.387Z,483.8333
2023-04-27T01:18:14.330Z,478.2500
2023-04-27T01:19:18.220Z,483.7500
2023-04-27T01:20:22.109Z,495.5833
2023-04-27T01:21:26.017Z,502.0000
2023-04-27T01:22:29.992Z,506.1667
2023-04-27T01:23:33.854Z,503.9167
2023-04-27T01:24:37.745Z,486.3333
2023-04-27T01:25:41.669Z,488.4167
2023-04-27T01:26:45.541Z,501.4167
2023-04-27T01:27:49.687Z,499.1667
2023-04-27T01:28:53.640Z,501.5000
2023-04-27T01:29:57.520Z,488.3333
2023-04-27T01:31:01.426Z,492.4167
2023-04-27T01:32:05.312Z,509.2500
2023-04-27T01:33:09.269Z,503.1667
2023-04-27T01:34:13.175Z,504.2500
2023-04-27T01:35:17.097Z,503.5000
2023-04-27T01:36:21.182Z,499.5000
2023-04-27T01:37:25.404Z,498.5000
2023-04-27T01:38:29.286Z,504.8333
2023-04-27T01:39:33.194Z,494.0000
2023-04-27T01:40:37.115Z,499.0833
2023-04-27T01:41:41.000Z,500.9167
2023-04-27T01:42:44.890Z,497.5000
2023-04-27T01:43:48.817Z,492.0000
2023-04-27T01:44:52.695Z,492.6667
2023-04-27T01:45:56.629Z,499.5000
2023-04-27T01:47:00.496Z,493.3333
2023-04-27T01:48:04.719Z,502.9167
2023-04-27T01:49:08.677Z,501.9167
2023-04-27T01:50:12.623Z,501.1667
2023-04-27T01:51:16.494Z,494.8333
2023-04-27T01:52:20.385Z,495.3333
2023-04-27T01:53:24.289Z,498.5833
2023-04-27T01:54:28.785Z,502.6667
2023-04-27T01:55:32.728Z,500.6667
2023-04-27T01:56:36.614Z,496.8333
2023-04-27T01:57:40.540Z,498.8333
2023-04-27T01:58:44.409Z,499.4167
2023-04-27T01:59:48.318Z,494.5833
2023-04-27T02:00:52.246Z,502.9167
2023-04-27T02:01:56.210Z,516.5000
2023-04-27T02:03:00.203Z,496.4167
2023-04-27T02:04:04.445Z,503.2500
2023-04-27T02:05:08.447Z,502.2500
2023-04-27T02:06:12.522Z,500.9167
2023-04-27T02:07:16.392Z,506.0000
2023-04-27T02:08:20.303Z,509.4167
2023-04-27T02:09:24.179Z,494.9167
2023-04-27T02:10:28.113Z,497.9167
2023-04-27T02:11:32.046Z,495.5000
2023-04-27T02:12:36.066Z,492.9167
2023-04-27T02:13:39.965Z,504.0000
2023-04-27T02:14:43.857Z,511.0000
2023-04-27T02:15:47.772Z,509.7500
2023-04-27T02:16:51.661Z,506.9167
2023-04-27T02:17:55.659Z,510.4167
2023-04-27T02:18:59.623Z,503.5833
2023-04-27T02:20:03.506Z,506.8333
2023-04-27T02:21:07.393Z,503.7500
2023-04-27T02:22:11.285Z,491.3333
2023-04-27T02:23:15.208Z,494.9167
2023-04-27T02:24:19.076Z,490.0000
2023-04-27T02:25:23.005Z,497.7500
2023-04-27T02:26:26.885Z,496.1667
2023-04-27T02:27:30.800Z,499.2500
2023-04-27T02:28:35.100Z,497.5000
2023-04-27T02:29:39.507Z,496.8333
2023-04-27T02:30:43.925Z,504.2500
2023-04-27T02:31:47.911Z,500.7500
2023-04-27T02:32:51.852Z,500.8333
2023-04-27T02:33:55.757Z,495.9167
2023-04-27T02:34:59.639Z,508.4167
2023-04-27T02:36:03.538Z,506.2500
2023-04-27T02:37:07.416Z,496.1667
2023-04-27T02:38:11.360Z,503.0000
2023-04-27T02:39:15.529Z,498.2500
2023-04-27T02:40:19.646Z,502.6667
2023-04-27T02:41:23.524Z,505.7500
2023-04-27T02:42:27.959Z,500.6667
2023-04-27T02:43:31.856Z,495.2500
2023-04-27T02:44:35.800Z,493.6667
2023-04-27T02:45:39.719Z,499.1667
2023-04-27T02:46:43.613Z,507.0000
2023-04-27T02:47:47.632Z,498.6667
2023-04-27T02:48:51.498Z,492.8333
2023-04-27T02:49:55.412Z,495.0833
2023-04-27T02:50:59.331Z,493.6667
2023-04-27T02:52:03.229Z,492.2500
2023-04-27T02:53:07.098Z,494.6667
2023-04-27T02:54:11.016Z,498.1667
2023-04-27T02:55:14.899Z,502.4167
2023-04-27T02:56:19.021Z,496.5000
2023-04-27T02:57:22.964Z,484.5833
2023-04-27T02:58:26.842Z,486.3333
2023-04-27T02:59:30.940Z,507.6667
2023-04-27T03:00:34.896Z,504.0000
2023-04-27T03:01:39.193Z,506.0000
2023-04-27T03:02:43.245Z,501.9167
2023-04-27T03:03:47.263Z,497.0833
2023-04-27T03:04:51.385Z,493.2500
2023-04-27T03:05:55.346Z,503.0833
2023-04-27T03:06:59.251Z,514.4167
2023-04-27T03:08:03.125Z,507.0000
2023-04-27T03:09:07.046Z,497.4167
2023-04-27T03:10:10.939Z,488.0833
2023-04-27T03:11:14.852Z,494.2500
2023-04-27T03:12:18.974Z,498.6667
2023-04-27T03:13:22.879Z,498.2500
2023-04-27T03:14:27.039Z,506.5000
2023-04-27T03:15:30.965Z,497.7500
2023-04-27T03:16:34.855Z,497.8333
2023-04-27T03:17:38.793Z,498.2500
2023-04-27T03:18:42.669Z,505.7500
2023-04-27T03:19:46.573Z,500.8333
2023-04-27T03:20:50.462Z,499.0833
2023-04-27T03:21:54.396Z,499.4167
2023-04-27T03:22:58.268Z,495.9167
2023-04-27T03:24:02.182Z,496.0000
2023-04-27T03:25:06.070Z,502.6667
2023-04-27T03:26:09.977Z,504.4167
2023-04-27T03:27:13.891Z,493.6667
2023-04-27T03:28:17.791Z,495.4167
2023-04-27T03:29:21.678Z,497.5833
2023-04-27T03:30:25.582Z,492.1667
2023-04-27T03:31:29.487Z,499.7500
2023-04-27T03:32:33.420Z,503.8333
2023-04-27T03:33:37.341Z,507.0833
2023-04-27T03:34:41.229Z,499.3333
2023-04-27T03:35:45.113Z,502.9167
2023-04-27T03:36:49.029Z,504.8333
2023-04-27T03:37:52.931Z,506.8333
2023-04-27T03:38:56.809Z,498.5833
2023-04-27T03:40:00.778Z,498.0000
2023-04-27T03:41:04.650Z,489.5000
2023-04-27T03:42:08.564Z,494.9167
2023-04-27T03:43:12.455Z,498.1667
2023-04-27T03:44:16.369Z,504.0000
2023-04-27T03:45:20.245Z,506.0833
2023-04-27T03:46:24.234Z,509.8333
2023-04-27T03:47:28.172Z,510.7500
2023-04-27T03:48:32.064Z,500.2500
2023-04-27T03:49:35.918Z,496.6667
2023-04-27T03:50:39.823Z,502.8333
2023-04-27T03:51:43.714Z,504.8333
2023-04-27T03:52:47.669Z,503.9167
2023-04-27T03:53:51.548Z,496.7500
2023-04-27T03:54:55.452Z,487.0833
2023-04-27T03:55:59.342Z,498.5000
2023-04-27T03:57:03.248Z,504.6667
2023-04-27T03:58:07.299Z,499.3333
2023-04-27T03:59:11.406Z,506.0833
2023-04-27T04:00:15.325Z,498.5833
2023-04-27T04:01:19.213Z,499.7500
2023-04-27T04:02:23.174Z,502.2500
2023-04-27T04:03:27.385Z,500.4167
2023-04-27T04:04:31.797Z,502.6667
2023-04-27T04:05:35.840Z,511.5000
2023-04-27T04:06:39.750Z,507.3333
2023-04-27T04:07:43.647Z,498.4167
2023-04-27T04:08:47.555Z,496.7500
2023-04-27T04:09:51.431Z,495.7500
2023-04-27T04:10:55.356Z,497.4167
2023-04-27T04:11:59.238Z,491.7500
2023-04-27T04:13:03.133Z,502.3333
2023-04-27T04:14:07.049Z,504.5000
2023-04-27T04:15:10.943Z,497.3333
2023-04-27T04:16:14.887Z,500.0833
2023-04-27T04:17:18.797Z,499.5000
2023-04-27T04:18:22.673Z,502.0833
2023-04-27T04:19:26.881Z,510.5833
2023-04-27T04:20:30.745Z,495.9167
2023-04-27T04:21:34.669Z,490.9167
2023-04-27T04:22:38.589Z,492.3333
2023-04-27T04:23:42.492Z,508.1667
2023-04-27T04:24:46.399Z,505.2500
2023-04-27T04:25:50.344Z,497.8333
2023-04-27T04:26:54.197Z,495.0000
2023-04-27T04:27:58.092Z,500.2500
2023-04-27T04:29:02.298Z,502.4167
2023-04-27T04:30:06.355Z,498.0000
2023-04-27T04:31:10.335Z,499.9167
2023-04-27T04:32:14.229Z,501.5833
2023-04-27T04:33:18.133Z,507.9167
2023-04-27T04:34:22.033Z,506.3333
2023-04-27T04:35:25.924Z,502.3333
2023-04-27T04:36:29.834Z,500.5833
2023-04-27T04:37:33.719Z,501.9167
2023-04-27T04:38:37.614Z,507.0833
2023-04-27T04:39:41.544Z,504.0000
2023-04-27T04:40:46.198Z,504.5833
2023-04-27T04:41:50.071Z,502.5833
2023-04-27T04:42:53.950Z,505.8333
2023-04-27T04:43:58.105Z,503.5000
2023-04-27T04:45:02.009Z,508.8333
2023-04-27T04:46:06.020Z,511.5000
2023-04-27T04:47:10.154Z,507.3333
2023-04-27T04:48:14.037Z,503.5000
2023-04-27T04:49:17.957Z,503.5000
2023-04-27T04:50:21.849Z,493.7500
2023-04-27T04:51:25.779Z,494.3333
2023-04-27T04:52:29.699Z,513.3333
2023-04-27T04:53:33.597Z,511.4167
2023-04-27T04:54:37.473Z,504.3333
2023-04-27T04:55:41.379Z,506.7500
2023-04-27T04:56:45.272Z,498.3333
2023-04-27T04:57:49.202Z,498.5833
2023-04-27T04:58:53.070Z,506.7500
2023-04-27T04:59:56.968Z,494.9167
2023-04-27T05:01:00.851Z,491.2500
2023-04-27T05:02:05.189Z,498.9167
2023-04-27T05:03:09.138Z,505.7500
2023-04-27T05:04:13.291Z,510.0000
2023-04-27T05:05:17.367Z,506.2500
2023-04-27T05:06:21.275Z,507.7500
2023-04-27T05:07:25.243Z,509.0000
2023-04-27T05:08:29.111Z,506.0833
2023-04-27T05:09:33.053Z,494.2500
2023-04-27T05:10:36.941Z,499.0000
2023-04-27T05:11:40.832Z,515.8333
2023-04-27T05:12:44.739Z,517.5000
2023-04-27T05:13:48.731Z,511.3333
2023-04-27T05:14:52.598Z,506.9167
2023-04-27T05:15:56.592Z,495.1667
2023-04-27T05:17:00.463Z,498.5000
2023-04-27T05:18:04.411Z,511.4167
2023-04-27T05:19:08.320Z,503.8333
2023-04-27T05:20:12.199Z,501.2500
2023-04-27T05:21:16.136Z,507.1667
2023-04-27T05:22:20.017Z,505.4167
2023-04-27T05:23:24.059Z,506.1667
2023-04-27T05:24:27.970Z,509.4167
2023-04-27T05:25:31.844Z,507.9167
2023-04-27T05:26:35.744Z,518.3333
2023-04-27T05:27:39.691Z,512.2500
2023-04-27T05:28:43.841Z,511.2500
2023-04-27T05:29:47.749Z,503.2500
2023-04-27T05:30:51.633Z,497.6667
2023-04-27T05:31:55.566Z,503.4167
2023-04-27T05:32:59.506Z,496.3333
2023-04-27T05:34:03.446Z,499.5000
2023-04-27T05:35:07.330Z,511.5833
2023-04-27T05:36:11.206Z,512.5000
2023-04-27T05:37:15.129Z,495.5000
2023-04-27T05:38:19.100Z,497.0000
2023-04-27T05:39:23.024Z,492.5000
2023-04-27T05:40:26.871Z,490.4167
2023-04-27T05:41:31.014Z,496.5000
2023-04-27T05:42:34.907Z,513.5000
2023-04-27T05:43:38.816Z,533.7500
2023-04-27T05:44:42.704Z,606.2500
2023-04-27T05:45:46.650Z,771.1667
2023-04-27T05:46:50.557Z,747.0833
2023-04-27T05:47:54.477Z,644.3333
2023-04-27T05:48:58.392Z,593.0000
2023-04-27T05:50:02.322Z,588.5833
2023-04-27T05:51:06.188Z,591.5000
2023-04-27T05:52:10.114Z,601.4167
2023-04-27T05:53:13.992Z,592.2500
2023-04-27T05:54:17.977Z,592.0000
2023-04-27T05:55:21.829Z,593.7500
2023-04-27T05:56:25.753Z,596.0000
2023-04-27T05:57:29.670Z,591.6667
2023-04-27T05:58:33.613Z,596.1667
2023-04-27T05:59:37.505Z,604.3333
2023-04-27T06:00:41.398Z,604.8333
2023-04-27T06:01:45.301Z,603.8333
2023-04-27T06:02:49.383Z,589.0833
2023-04-27T06:03:53.504Z,587.5833
2023-04-27T06:04:57.506Z,598.7500
2023-04-27T06:06:01.399Z,596.0000
2023-04-27T06:07:05.313Z,604.4167
2023-04-27T06:08:09.211Z,606.1667
2023-04-27T06:09:13.243Z,599.1667
2023-04-27T06:10:17.275Z,592.2500
2023-04-27T06:11:21.421Z,598.3333
2023-04-27T06:12:25.335Z,606.0833
2023-04-27T06:13:29.253Z,608.8333
2023-04-27T06:14:33.207Z,603.2500
2023-04-27T06:15:37.110Z,599.0833
2023-04-27T06:16:41.017Z,594.4167
2023-04-27T06:17:44.924Z,596.6667
2023-04-27T06:18:48.825Z,598.0833
2023-04-27T06:19:52.726Z,597.7500
2023-04-27T06:20:56.625Z,592.7500
2023-04-27T06:22:00.538Z,590.9167
2023-04-27T06:23:04.410Z,584.5833
2023-04-27T06:24:08.283Z,586.1667
2023-04-27T06:25:12.183Z,592.0000
2023-04-27T06:26:16.062Z,592.5833
2023-04-27T06:27:20.000Z,592.7500
2023-04-27T06:28:23.889Z,599.5833
2023-04-27T06:29:27.764Z,592.4167
2023-04-27T06:30:31.642Z,589.0833
2023-04-27T06:31:35.601Z,580.0833
2023-04-27T06:32:39.484Z,593.0000
2023-04-27T06:33:43.380Z,595.0833
2023-04-27T06:34:47.430Z,602.2500
2023-04-27T06:35:51.319Z,597.7500
2023-04-27T06:36:55.217Z,594.9167
2023-04-27T06:37:59.185Z,592.1667
2023-04-27T06:39:03.142Z,598.8333
2023-04-27T06:40:07.101Z,597.0000
2023-04-27T06:41:10.980Z,599.6667
2023-04-27T06:42:14.878Z,581.0000
2023-04-27T06:43:18.779Z,579.6667
2023-04-27T06:44:22.938Z,587.7500
2023-04-27T06:45:26.868Z,597.7500
2023-04-27T06:46:30.789Z,599.4167
2023-04-27T06:47:34.788Z,599.7500
2023-04-27T06:48:38.664Z,598.7500
2023-04-27T06:49:42.563Z,593.6667
2023-04-27T06:50:46.482Z,592.7500
2023-04-27T06:51:50.394Z,595.1667
2023-04-27T06:52:54.317Z,594.9167
2023-04-27T06:53:58.199Z,594.5833
2023-04-27T06:55:02.100Z,592.0000
2023-04-27T06:56:06.012Z,581.8333
2023-04-27T06:57:09.932Z,583.7500
2023-04-27T06:58:13.911Z,585.1667
2023-04-27T06:59:17.784Z,594.7500
2023-04-27T07:00:21.702Z,601.8333
2023-04-27T07:01:25.648Z,602.6667
2023-04-27T07:02:29.551Z,597.8333
2023-04-27T07:03:33.599Z,593.8333
2023-04-27T07:04:37.575Z,591.5000
2023-04-27T07:05:41.515Z,596.9167
2023-04-27T07:06:45.442Z,592.9167
2023-04-27T07:07:49.343Z,593.0833
2023-04-27T07:08:53.233Z,597.1667
2023-04-27T07:09:57.319Z,596.5833
2023-04-27T07:11:01.205Z,590.1667
2023-04-27T07:12:05.094Z,595.1667
2023-04-27T07:13:09.579Z,597.8333
2023-04-27T07:14:13.893Z,593.5000
2023-04-27T07:15:17.811Z,592.9167
2023-04-27T07:16:21.784Z,580.0000
2023-04-27T07:17:25.665Z,579.4167
2023-04-27T07:18:29.506Z,588.5000
2023-04-27T07:19:33.406Z,593.2500
2023-04-27T07:20:37.285Z,593.6667
2023-04-27T07:21:41.302Z,591.6667
2023-04-27T07:22:45.192Z,592.0000
2023-04-27T07:23:49.092Z,584.6667
2023-04-27T07:24:53.021Z,591.1667
2023-04-27T07:25:56.914Z,586.5000
2023-04-27T07:27:00.826Z,577.0833
2023-04-27T07:28:04.713Z,583.5000
2023-04-27T07:29:22.975Z,576.6667
2023-04-27T07:30:13.157Z,582.7273
2023-04-27T07:31:17.121Z,593.8333
2023-04-27T07:32:21.043Z,591.7500
2023-04-27T07:33:24.947Z,593.6667
2023-04-27T07:34:32.897Z,609.1667
2023-04-27T07:35:33.619Z,590.7273
2023-04-27T07:36:37.521Z,583.7500
2023-04-27T07:37:41.437Z,585.8333
2023-04-27T07:38:45.352Z,588.6667
2023-04-27T07:39:49.293Z,589.7500
2023-04-27T07:40:53.197Z,591.8333
2023-04-27T07:41:57.147Z,579.0000
2023-04-27T07:43:01.032Z,574.5833
2023-04-27T07:44:04.933Z,564.4167
2023-04-27T07:45:08.823Z,572.7500
2023-04-27T07:46:12.748Z,577.2500
2023-04-27T07:47:16.716Z,582.0000
2023-04-27T07:48:20.680Z,582.2500
2023-04-27T07:49:24.555Z,570.5833
2023-04-27T07:50:28.454Z,578.2500
2023-04-27T07:51:32.337Z,578.1667
2023-04-27T07:52:36.222Z,588.1667
2023-04-27T07:53:40.104Z,589.4167
2023-04-27T07:54:44.053Z,578.5833
2023-04-27T07:55:47.955Z,578.4167
2023-04-27T07:56:51.865Z,574.4167
2023-04-27T07:57:55.761Z,578.0000
2023-04-27T07:58:59.644Z,591.0000
2023-04-27T08:00:03.529Z,595.6667
2023-04-27T08:01:07.532Z,594.5833
2023-04-27T08:02:19.534Z,586.9167
2023-04-27T08:03:16.053Z,583.9091
2023-04-27T08:04:20.628Z,588.5833
2023-04-27T08:05:24.796Z,592.0000
2023-04-27T08:06:29.699Z,587.3333
2023-04-27T08:07:35.507Z,590.3333
2023-04-27T08:08:36.839Z,585.0000
2023-04-27T08:09:40.736Z,580.6667
2023-04-27T08:10:44.644Z,579.5000
2023-04-27T08:11:48.552Z,581.0833
2023-04-27T08:12:52.458Z,594.0833
2023-04-27T08:13:56.407Z,590.3333
2023-04-27T08:15:00.311Z,586.0000
2023-04-27T08:16:04.219Z,574.8333
2023-04-27T08:17:08.146Z,573.9167
2023-04-27T08:18:12.116Z,584.9167
2023-04-27T08:19:16.384Z,585.2500
2023-04-27T08:20:20.332Z,590.4167
2023-04-27T08:21:24.201Z,584.7500
2023-04-27T08:22:28.087Z,582.4167
2023-04-27T08:23:31.999Z,585.8333
2023-04-27T08:24:35.975Z,581.5000
2023-04-27T08:25:39.875Z,581.6667
2023-04-27T08:26:43.813Z,583.3333
2023-04-27T08:27:47.705Z,582.8333
2023-04-27T08:28:51.614Z,582.0833
2023-04-27T08:29:55.542Z,584.3333
2023-04-27T08:30:59.480Z,582.0833
2023-04-27T08:32:03.394Z,583.8333
2023-04-27T08:33:07.355Z,586.9167
2023-04-27T08:34:11.564Z,579.6667
2023-04-27T08:35:15.485Z,575.4167
2023-04-27T08:36:19.358Z,571.2500
2023-04-27T08:37:23.283Z,578.2500
2023-04-27T08:38:27.228Z,583.6667
2023-04-27T08:39:31.149Z,580.9167
2023-04-27T08:40:35.059Z,573.5000
2023-04-27T08:41:38.974Z,570.0000
2023-04-27T08:42:42.871Z,561.1667
2023-04-27T08:43:46.769Z,565.3333
2023-04-27T08:44:50.696Z,574.0833
2023-04-27T08:45:54.597Z,582.5000
2023-04-27T08:46:58.470Z,587.0833
2023-04-27T08:48:02.409Z,578.1667
2023-04-27T08:49:06.339Z,570.1667
2023-04-27T08:50:10.220Z,575.3333
2023-04-27T08:51:14.164Z,576.0833
2023-04-27T08:52:18.055Z,577.0833
2023-04-27T08:53:21.957Z,575.5000
2023-04-27T08:54:25.866Z,571.5000
2023-04-27T08:55:29.789Z,560.0000
2023-04-27T08:56:33.707Z,569.2500
2023-04-27T08:57:37.649Z,567.4167
2023-04-27T08:58:41.548Z,576.5833
2023-04-27T08:59:45.564Z,582.7500
2023-04-27T09:00:50.780Z,583.5000
2023-04-27T09:01:51.145Z,566.7273
2023-04-27T09:02:55.307Z,573.3333
2023-04-27T09:03:59.772Z,579.5000
2023-04-27T09:05:04.170Z,573.5000
2023-04-27T09:06:08.227Z,576.8333
2023-04-27T09:07:08.420Z,573.3636
2023-04-27T09:08:12.338Z,571.3333
2023-04-27T09:09:16.385Z,567.0833
2023-04-27T09:10:20.309Z,574.1667
2023-04-27T09:11:24.189Z,571.3333
2023-04-27T09:12:28.086Z,575.9167
2023-04-27T09:13:31.972Z,582.5000
2023-04-27T09:14:35.867Z,578.2500
2023-04-27T09:15:39.767Z,568.8333
2023-04-27T09:16:44.020Z,575.5000
2023-04-27T09:17:48.032Z,579.5000
2023-04-27T09:18:51.967Z,577.4167
2023-04-27T09:19:55.852Z,572.8333
2023-04-27T09:20:59.762Z,571.3333
2023-04-27T09:22:03.679Z,565.6667
2023-04-27T09:23:07.619Z,565.4167
2023-04-27T09:24:11.506Z,578.9167
2023-04-27T09:25:15.403Z,586.0833
2023-04-27T09:26:19.286Z,570.0000
2023-04-27T09:27:23.479Z,558.5833
2023-04-27T09:28:27.405Z,571.4167
2023-04-27T09:29:31.314Z,570.0833
2023-04-27T09:30:35.202Z,571.0000
2023-04-27T09:31:39.202Z,577.8333
2023-04-27T09:32:43.120Z,577.8333
2023-04-27T09:33:47.036Z,576.1667
2023-04-27T09:34:51.183Z,568.0000
2023-04-27T09:35:55.064Z,566.8333
2023-04-27T09:36:58.951Z,571.5833
2023-04-27T09:38:02.845Z,574.2500
2023-04-27T09:39:06.761Z,573.6667
2023-04-27T09:40:10.645Z,576.0000
2023-04-27T09:41:14.566Z,572.6667
2023-04-27T09:42:18.480Z,568.5000
2023-04-27T09:43:22.351Z,569.3333
2023-04-27T09:44:26.249Z,573.5000
2023-04-27T09:45:30.194Z,572.2500
2023-04-27T09:46:34.073Z,571.3333
2023-04-27T09:47:38.060Z,571.5833
2023-04-27T09:48:41.975Z,569.4167
2023-04-27T09:49:45.856Z,568.8333
2023-04-27T09:50:49.769Z,570.6667
2023-04-27T09:51:53.683Z,574.7500
2023-04-27T09:52:57.592Z,573.9167
2023-04-27T09:54:01.513Z,559.3333
2023-04-27T09:55:05.413Z,557.3333
2023-04-27T09:56:09.325Z,566.0000
2023-04-27T09:57:13.219Z,571.5833
2023-04-27T09:58:17.118Z,573.9167
2023-04-27T09:59:21.049Z,565.3333
2023-04-27T10:00:25.221Z,558.6667
2023-04-27T10:01:29.176Z,556.2500
2023-04-27T10:02:35.116Z,560.1667
2023-04-27T10:03:37.654Z,566.4545
2023-04-27T10:04:41.713Z,570.5000
2023-04-27T10:05:45.689Z,579.5833
2023-04-27T10:06:49.581Z,568.7500
2023-04-27T10:07:53.486Z,548.3333
2023-04-27T10:08:57.537Z,552.0833
2023-04-27T10:10:01.434Z,562.6667
2023-04-27T10:11:05.362Z,570.3333
2023-04-27T10:12:09.265Z,572.5000
2023-04-27T10:13:13.160Z,567.6667
2023-04-27T10:14:17.071Z,567.0000
2023-04-27T10:15:20.988Z,571.9167
2023-04-27T10:16:25.016Z,572.2500
2023-04-27T10:17:25.297Z,573.1818
2023-04-27T10:18:29.193Z,574.3333
2023-04-27T10:19:33.085Z,572.8333
2023-04-27T10:20:37.006Z,549.3333
2023-04-27T10:21:40.912Z,546.5000
2023-04-27T10:22:44.814Z,559.5833
2023-04-27T10:23:48.745Z,569.8333
2023-04-27T10:24:52.656Z,570.3333
2023-04-27T10:25:56.540Z,578.4167
2023-04-27T10:27:00.707Z,573.5833
2023-04-27T10:28:04.617Z,567.3333
2023-04-27T10:29:08.773Z,571.4167
2023-04-27T10:30:12.703Z,575.5000
2023-04-27T10:31:16.654Z,577.2500
2023-04-27T10:32:20.543Z,562.5000
2023-04-27T10:33:24.429Z,552.5833
2023-04-27T10:34:28.336Z,555.8333
2023-04-27T10:35:32.257Z,556.8333
2023-04-27T10:36:36.188Z,562.0000
2023-04-27T10:37:40.090Z,564.8333
2023-04-27T10:38:43.999Z,563.5000
2023-04-27T10:39:49.588Z,558.4167
2023-04-27T10:40:49.014Z,551.4545
2023-04-27T10:41:52.913Z,556.0000
2023-04-27T10:42:56.862Z,562.5000
2023-04-27T10:44:00.758Z,557.7500
2023-04-27T10:45:04.648Z,559.0000
2023-04-27T10:46:08.596Z,557.0833
2023-04-27T10:47:12.747Z,554.3333
2023-04-27T10:48:16.632Z,550.7500
2023-04-27T10:49:20.572Z,557.5000
2023-04-27T10:50:24.436Z,563.2500
2023-04-27T10:51:28.348Z,564.5833
2023-04-27T10:52:32.271Z,569.0000
2023-04-27T10:53:36.179Z,553.8333
2023-04-27T10:54:40.119Z,556.7500
2023-04-27T10:55:44.027Z,563.2500
2023-04-27T10:56:47.938Z,553.9167
2023-04-27T10:57:51.835Z,549.3333
2023-04-27T10:58:55.722Z,550.3333
2023-04-27T10:59:59.612Z,545.1667
2023-04-27T11:01:03.565Z,556.3333
2023-04-27T11:02:07.482Z,555.9167
2023-04-27T11:03:11.619Z,558.6667
2023-04-27T11:04:15.822Z,557.3333
2023-04-27T11:05:19.961Z,552.0833
2023-04-27T11:06:23.841Z,547.4167
2023-04-27T11:07:27.877Z,570.6667
2023-04-27T11:08:31.798Z,565.5000
2023-04-27T11:09:35.748Z,557.4167
2023-04-27T11:10:39.640Z,556.7500
2023-04-27T11:11:43.578Z,562.6667
2023-04-27T11:12:47.472Z,556.3333
2023-04-27T11:13:51.413Z,552.0833
2023-04-27T11:14:55.313Z,556.6667
2023-04-27T11:15:59.258Z,562.5000
2023-04-27T11:17:03.109Z,557.4167
2023-04-27T11:18:07.049Z,567.9167
2023-04-27T11:19:10.989Z,558.1667
2023-04-27T11:20:14.917Z,553.1667
2023-04-27T11:21:19.081Z,548.3333
2023-04-27T11:22:23.005Z,554.5000
2023-04-27T11:23:26.867Z,559.5833
2023-04-27T11:24:30.776Z,560.9167
2023-04-27T11:25:34.730Z,556.7500
2023-04-27T11:26:38.611Z,552.3333
2023-04-27T11:27:42.512Z,558.3333
2023-04-27T11:28:46.746Z,562.8333
2023-04-27T11:29:50.645Z,562.1667
2023-04-27T11:30:54.573Z,569.8333
2023-04-27T11:31:58.776Z,561.4167
2023-04-27T11:33:02.760Z,548.7500
2023-04-27T11:34:07.816Z,556.2500
2023-04-27T11:35:11.794Z,564.3333
2023-04-27T11:36:15.689Z,568.8333
2023-04-27T11:37:19.572Z,569.1667
2023-04-27T11:38:23.569Z,569.3333
2023-04-27T11:39:27.492Z,554.9167
2023-04-27T11:40:31.393Z,564.2500
2023-04-27T11:41:35.325Z,569.4167
2023-04-27T11:42:39.219Z,571.5000
2023-04-27T11:43:43.121Z,563.5833
2023-04-27T11:44:47.074Z,566.2500
2023-04-27T11:45:50.937Z,561.5833
2023-04-27T11:46:54.917Z,556.7500
2023-04-27T11:47:58.847Z,563.7500
2023-04-27T11:49:02.986Z,571.0000
2023-04-27T11:50:06.879Z,573.0833
2023-04-27T11:51:10.816Z,569.8333
2023-04-27T11:52:14.715Z,563.6667
2023-04-27T11:53:18.941Z,554.2500
2023-04-27T11:54:22.991Z,543.6667
2023-04-27T11:55:26.914Z,558.1667
2023-04-27T11:56:30.823Z,567.4167
2023-04-27T11:57:34.756Z,571.6667
2023-04-27T11:58:38.681Z,559.8333
2023-04-27T11:59:42.559Z,558.4167
2023-04-27T12:00:46.462Z,564.4167
2023-04-27T12:01:50.607Z,567.3333
2023-04-27T12:02:54.665Z,568.6667
2023-04-27T12:04:02.145Z,568.8333
2023-04-27T12:05:01.183Z,571.1818
2023-04-27T12:06:21.504Z,569.8333
2023-04-27T12:07:09.755Z,568.9091
2023-04-27T12:08:13.664Z,566.4167
2023-04-27T12:09:17.577Z,572.4167
2023-04-27T12:10:21.514Z,570.5833
2023-04-27T12:11:25.484Z,568.6667
2023-04-27T12:12:29.399Z,565.4167
2023-04-27T12:13:33.318Z,566.5000
2023-04-27T12:14:37.221Z,574.2500
2023-04-27T12:15:41.134Z,573.4167
2023-04-27T12:16:45.090Z,573.2500
2023-04-27T12:17:49.050Z,577.2500
2023-04-27T12:18:52.971Z,581.8333
2023-04-27T12:19:56.904Z,564.7500
2023-04-27T12:21:02.983Z,564.4167
2023-04-27T12:22:01.888Z,568.3636
2023-04-27T12:23:05.842Z,568.3333
2023-04-27T12:24:09.729Z,570.7500
2023-04-27T12:25:13.613Z,561.6667
2023-04-27T12:26:17.522Z,558.2500
2023-04-27T12:27:21.411Z,560.5000
2023-04-27T12:28:25.326Z,572.0000
2023-04-27T12:29:29.276Z,571.5833
2023-04-27T12:30:33.154Z,570.7500